createdAt,value
2019-02-24T00:00:47.940Z,0.00
2019-02-24T00:01:47.947Z,0.00
2019-02-24T00:02:47.957Z,0.00
2019-02-24T00:03:47.966Z,0.00
2019-02-24T00:04:47.974Z,0.00
2019-02-24T00:05:47.981Z,0.00
2019-02-24T00:06:48.035Z,0.00
2019-02-24T00:07:48.000Z,0.00
2019-02-24T00:08:48.010Z,0.00
2019-02-24T00:09:48.022Z,0.00
2019-02-24T00:10:48.030Z,0.00
2019-02-24T00:11:48.038Z,0.00
2019-02-24T00:12:48.047Z,0.00
2019-02-24T00:13:48.057Z,0.00
2019-02-24T00:14:48.063Z,0.00
2019-02-24T00:15:48.074Z,0.00
2019-02-24T00:16:48.086Z,0.00
2019-02-24T00:17:48.094Z,0.00
2019-02-24T00:18:48.103Z,0.00
2019-02-24T00:19:48.113Z,0.00
2019-02-24T00:20:48.120Z,0.00
2019-02-24T00:21:48.139Z,0.00
2019-02-24T00:22:48.219Z,0.00
2019-02-24T00:23:48.222Z,0.00
2019-02-24T00:24:48.218Z,0.00
2019-02-24T00:25:48.216Z,0.00
2019-02-24T00:26:48.216Z,0.00
2019-02-24T00:27:48.214Z,0.00
2019-02-24T00:28:48.220Z,0.00
2019-02-24T00:29:48.265Z,0.00
2019-02-24T00:30:48.270Z,0.00
2019-02-24T00:31:48.273Z,0.00
2019-02-24T00:32:48.285Z,0.00
2019-02-24T00:33:48.284Z,0.00
2019-02-24T00:34:48.269Z,0.00
2019-02-24T00:35:48.269Z,0.00
2019-02-24T00:36:48.271Z,0.00
2019-02-24T00:37:48.281Z,0.00
2019-02-24T00:38:48.289Z,0.00
2019-02-24T00:39:48.298Z,0.00
2019-02-24T00:40:48.305Z,0.00
2019-02-24T00:41:48.317Z,0.00
2019-02-24T00:42:48.323Z,0.00
2019-02-24T00:43:48.333Z,0.00
2019-02-24T00:44:48.344Z,0.00
2019-02-24T00:45:48.355Z,0.00
2019-02-24T00:46:48.371Z,0.00
2019-02-24T00:47:48.372Z,0.00
2019-02-24T00:48:48.381Z,0.00
2019-02-24T00:49:48.388Z,0.00
2019-02-24T00:50:48.399Z,0.00
2019-02-24T00:51:48.407Z,0.00
2019-02-24T00:52:48.415Z,0.00
2019-02-24T00:53:48.424Z,0.00
2019-02-24T00:54:48.432Z,0.00
2019-02-24T00:55:48.442Z,0.00
2019-02-24T00:56:48.454Z,0.00
2019-02-24T00:57:48.463Z,0.00
2019-02-24T00:58:48.470Z,0.00
2019-02-24T00:59:48.481Z,0.00
2019-02-24T01:00:48.489Z,0.00
2019-02-24T01:01:48.502Z,0.00
2019-02-24T01:02:48.507Z,0.00
2019-02-24T01:03:48.519Z,0.00
2019-02-24T01:04:48.524Z,0.00
2019-02-24T01:05:48.536Z,0.00
2019-02-24T01:06:48.550Z,0.00
2019-02-24T01:07:48.554Z,0.00
2019-02-24T01:08:48.565Z,0.00
2019-02-24T01:09:48.573Z,0.00
2019-02-24T01:10:48.584Z,0.00
2019-02-24T01:11:48.592Z,0.00
2019-02-24T01:12:48.603Z,0.00
2019-02-24T01:13:48.610Z,0.00
2019-02-24T01:14:48.626Z,0.00
2019-02-24T01:15:48.627Z,0.00
2019-02-24T01:16:48.644Z,0.00
2019-02-24T01:17:48.651Z,0.00
2019-02-24T01:18:48.657Z,0.00
2019-02-24T01:19:48.666Z,0.00
2019-02-24T01:20:48.676Z,0.00
2019-02-24T01:21:48.684Z,0.00
2019-02-24T01:22:48.696Z,0.00
2019-02-24T01:23:48.706Z,0.00
2019-02-24T01:24:48.715Z,0.00
2019-02-24T01:25:48.718Z,0.00
2019-02-24T01:26:48.729Z,0.00
2019-02-24T01:27:48.741Z,0.00
2019-02-24T01:28:48.750Z,0.00
2019-02-24T01:29:48.758Z,0.00
2019-02-24T01:30:48.769Z,0.00
2019-02-24T01:31:48.784Z,0.00
2019-02-24T01:32:48.789Z,0.00
2019-02-24T01:33:48.794Z,0.00
2019-02-24T01:34:48.808Z,0.00
2019-02-24T01:35:48.813Z,0.00
2019-02-24T01:36:48.821Z,0.00
2019-02-24T01:37:48.828Z,0.00
2019-02-24T01:38:48.840Z,0.00
2019-02-24T01:39:48.847Z,0.00
2019-02-24T01:40:48.864Z,0.00
2019-02-24T01:41:48.872Z,0.00
2019-02-24T01:42:48.876Z,0.00
2019-02-24T01:43:48.886Z,0.00
2019-02-24T01:44:48.895Z,0.00
2019-02-24T01:45:48.901Z,0.00
2019-02-24T01:46:48.912Z,0.00
2019-02-24T01:47:48.919Z,0.00
2019-02-24T01:48:48.931Z,0.00
2019-02-24T01:49:48.941Z,0.00
2019-02-24T01:50:48.953Z,0.00
2019-02-24T01:51:48.957Z,0.00
2019-02-24T01:52:48.966Z,0.00
2019-02-24T01:53:48.975Z,0.00
2019-02-24T01:54:48.988Z,0.00
2019-02-24T01:55:48.995Z,0.00
2019-02-24T01:56:49.001Z,0.00
2019-02-24T01:57:49.009Z,0.00
2019-02-24T01:58:49.018Z,0.00
2019-02-24T01:59:49.027Z,0.00
2019-02-24T02:00:49.038Z,0.00
2019-02-24T02:01:49.046Z,0.00
2019-02-24T02:02:49.055Z,0.00
2019-02-24T02:03:49.066Z,0.00
2019-02-24T02:04:49.073Z,0.00
2019-02-24T02:05:49.082Z,0.00
2019-02-24T02:06:49.091Z,0.00
2019-02-24T02:07:49.098Z,0.00
2019-02-24T02:08:49.108Z,0.00
2019-02-24T02:09:49.116Z,0.00
2019-02-24T02:10:49.124Z,0.00
2019-02-24T02:11:49.135Z,0.00
2019-02-24T02:12:49.145Z,0.00
2019-02-24T02:13:49.159Z,0.00
2019-02-24T02:14:49.164Z,0.00
2019-02-24T02:15:49.171Z,0.00
2019-02-24T02:16:49.177Z,0.00
2019-02-24T02:17:49.185Z,0.00
2019-02-24T02:18:49.197Z,0.00
2019-02-24T02:19:49.205Z,0.00
2019-02-24T02:20:49.214Z,0.00
2019-02-24T02:21:49.223Z,0.00
2019-02-24T02:22:49.232Z,0.00
2019-02-24T02:23:49.243Z,0.00
2019-02-24T02:24:49.249Z,0.00
2019-02-24T02:25:49.254Z,0.00
2019-02-24T02:26:49.265Z,0.00
2019-02-24T02:27:49.273Z,0.00
2019-02-24T02:28:49.284Z,0.00
2019-02-24T02:29:49.292Z,0.00
2019-02-24T02:30:49.301Z,0.00
2019-02-24T02:31:49.312Z,0.00
2019-02-24T02:32:49.316Z,0.00
2019-02-24T02:33:49.325Z,0.00
2019-02-24T02:34:49.335Z,0.00
2019-02-24T02:35:49.363Z,0.00
2019-02-24T02:36:49.353Z,0.00
2019-02-24T02:37:49.365Z,0.00
2019-02-24T02:38:49.373Z,0.00
2019-02-24T02:39:49.381Z,0.00
2019-02-24T02:40:49.397Z,0.00
2019-02-24T02:41:49.397Z,0.00
2019-02-24T02:42:49.405Z,0.00
2019-02-24T02:43:49.417Z,0.00
2019-02-24T02:44:49.422Z,0.00
2019-02-24T02:45:49.427Z,0.00
2019-02-24T02:46:49.440Z,0.00
2019-02-24T02:47:49.448Z,0.00
2019-02-24T02:48:49.462Z,0.00
2019-02-24T02:49:49.466Z,0.00
2019-02-24T02:50:49.477Z,0.00
2019-02-24T02:51:49.484Z,0.00
2019-02-24T02:52:49.493Z,0.00
2019-02-24T02:53:49.499Z,0.00
2019-02-24T02:54:49.508Z,0.00
2019-02-24T02:55:49.518Z,0.00
2019-02-24T02:56:49.525Z,0.00
2019-02-24T02:57:49.535Z,0.00
2019-02-24T02:58:54.300Z,0.00
2019-02-24T02:59:49.552Z,0.00
2019-02-24T03:00:49.564Z,0.00
2019-02-24T03:01:49.574Z,0.00
2019-02-24T03:02:49.589Z,0.00
2019-02-24T03:03:49.588Z,0.00
2019-02-24T03:04:49.595Z,0.00
2019-02-24T03:05:49.605Z,0.00
2019-02-24T03:06:49.613Z,0.00
2019-02-24T03:07:49.619Z,0.00
2019-02-24T03:08:49.636Z,0.00
2019-02-24T03:09:49.641Z,0.00
2019-02-24T03:10:49.648Z,0.00
2019-02-24T03:11:49.656Z,0.00
2019-02-24T03:12:49.674Z,0.00
2019-02-24T03:13:49.679Z,0.00
2019-02-24T03:14:49.684Z,0.00
2019-02-24T03:15:49.691Z,0.00
2019-02-24T03:16:49.704Z,0.00
2019-02-24T03:17:49.707Z,0.00
2019-02-24T03:18:49.714Z,0.00
2019-02-24T03:19:49.726Z,0.00
2019-02-24T03:20:49.736Z,0.00
2019-02-24T03:21:49.744Z,0.00
2019-02-24T03:22:49.753Z,0.00
2019-02-24T03:23:49.766Z,0.00
2019-02-24T03:24:49.770Z,0.00
2019-02-24T03:25:49.776Z,0.00
2019-02-24T03:26:49.787Z,0.00
2019-02-24T03:27:49.793Z,0.00
2019-02-24T03:28:49.801Z,0.00
2019-02-24T03:29:49.811Z,0.00
2019-02-24T03:30:49.833Z,0.00
2019-02-24T03:31:49.829Z,0.00
2019-02-24T03:32:49.840Z,0.00
2019-02-24T03:33:49.848Z,0.00
2019-02-24T03:34:49.855Z,0.00
2019-02-24T03:35:49.865Z,0.00
2019-02-24T03:36:49.871Z,0.00
2019-02-24T03:37:49.879Z,0.00
2019-02-24T03:38:49.904Z,0.00
2019-02-24T03:39:49.980Z,0.00
2019-02-24T03:40:49.974Z,0.00
2019-02-24T03:41:49.975Z,0.00
2019-02-24T03:42:49.973Z,0.00
2019-02-24T03:43:49.971Z,0.00
2019-02-24T03:44:49.969Z,0.00
2019-02-24T03:45:50.035Z,0.00
2019-02-24T03:46:50.021Z,0.00
2019-02-24T03:47:50.034Z,0.00
2019-02-24T03:48:50.033Z,0.00
2019-02-24T03:49:50.033Z,0.00
2019-02-24T03:50:50.017Z,0.00
2019-02-24T03:51:50.021Z,0.00
2019-02-24T03:52:50.024Z,0.00
2019-02-24T03:53:50.032Z,0.00
2019-02-24T03:54:50.036Z,0.00
2019-02-24T03:55:50.039Z,0.00
2019-02-24T03:56:50.050Z,0.00
2019-02-24T03:57:50.052Z,0.00
2019-02-24T03:58:50.062Z,0.00
2019-02-24T03:59:50.069Z,0.00
2019-02-24T04:00:50.079Z,0.00
2019-02-24T04:01:50.086Z,0.00
2019-02-24T04:02:50.095Z,0.00
2019-02-24T04:03:50.107Z,0.00
2019-02-24T04:04:50.117Z,0.00
2019-02-24T04:05:50.125Z,0.00
2019-02-24T04:06:50.133Z,0.00
2019-02-24T04:07:50.142Z,0.00
2019-02-24T04:08:50.151Z,0.00
2019-02-24T04:09:50.155Z,0.00
2019-02-24T04:10:50.164Z,0.00
2019-02-24T04:11:50.175Z,0.00
2019-02-24T04:12:50.184Z,0.00
2019-02-24T04:13:50.195Z,0.00
2019-02-24T04:14:50.200Z,0.00
2019-02-24T04:15:50.211Z,0.00
2019-02-24T04:16:50.222Z,0.00
2019-02-24T04:17:50.230Z,0.00
2019-02-24T04:18:50.235Z,0.00
2019-02-24T04:19:50.244Z,0.00
2019-02-24T04:20:50.251Z,0.00
2019-02-24T04:21:50.259Z,0.00
2019-02-24T04:22:50.270Z,0.00
2019-02-24T04:23:50.277Z,0.00
2019-02-24T04:24:50.288Z,0.00
2019-02-24T04:25:50.299Z,0.00
2019-02-24T04:26:50.306Z,0.00
2019-02-24T04:27:50.315Z,0.00
2019-02-24T04:28:50.320Z,0.00
2019-02-24T04:29:50.329Z,0.00
2019-02-24T04:30:50.335Z,0.00
2019-02-24T04:31:50.345Z,0.00
2019-02-24T04:32:50.358Z,0.00
2019-02-24T04:33:50.363Z,0.00
2019-02-24T04:34:50.373Z,0.00
2019-02-24T04:35:50.383Z,0.00
2019-02-24T04:36:50.390Z,0.00
2019-02-24T04:37:50.398Z,0.00
2019-02-24T04:38:50.405Z,0.00
2019-02-24T04:39:50.415Z,0.00
2019-02-24T04:40:50.427Z,0.00
2019-02-24T04:41:50.434Z,0.00
2019-02-24T04:42:50.444Z,0.00
2019-02-24T04:43:50.452Z,0.00
2019-02-24T04:44:50.461Z,0.00
2019-02-24T04:45:50.469Z,0.00
2019-02-24T04:46:50.477Z,0.00
2019-02-24T04:47:50.484Z,0.00
2019-02-24T04:48:50.497Z,0.00
2019-02-24T04:49:50.501Z,0.00
2019-02-24T04:50:50.556Z,0.00
2019-02-24T04:51:50.527Z,0.00
2019-02-24T04:52:50.535Z,0.00
2019-02-24T04:53:50.539Z,0.00
2019-02-24T04:54:50.547Z,0.00
2019-02-24T04:55:50.556Z,0.00
2019-02-24T04:56:50.563Z,0.00
2019-02-24T04:57:50.572Z,0.00
2019-02-24T04:58:50.579Z,0.00
2019-02-24T04:59:50.589Z,0.00
2019-02-24T05:00:50.599Z,0.00
2019-02-24T05:01:50.608Z,0.00
2019-02-24T05:02:50.616Z,0.00
2019-02-24T05:03:50.626Z,0.00
2019-02-24T05:04:50.636Z,0.00
2019-02-24T05:05:50.645Z,0.00
2019-02-24T05:06:50.902Z,0.00
2019-02-24T05:07:50.662Z,0.00
2019-02-24T05:08:50.667Z,0.00
2019-02-24T05:09:50.675Z,0.00
2019-02-24T05:10:50.684Z,0.00
2019-02-24T05:11:50.692Z,0.00
2019-02-24T05:12:50.704Z,0.00
2019-02-24T05:13:50.712Z,0.00
2019-02-24T05:14:50.723Z,0.00
2019-02-24T05:15:50.731Z,0.00
2019-02-24T05:16:51.036Z,0.00
2019-02-24T05:17:50.749Z,0.00
2019-02-24T05:18:50.753Z,0.00
2019-02-24T05:19:50.761Z,0.00
2019-02-24T05:20:50.774Z,0.00
2019-02-24T05:21:50.779Z,0.00
2019-02-24T05:22:50.790Z,0.00
2019-02-24T05:23:50.796Z,0.00
2019-02-24T05:24:50.809Z,0.00
2019-02-24T05:25:50.815Z,0.00
2019-02-24T05:26:50.826Z,0.00
2019-02-24T05:27:50.833Z,0.00
2019-02-24T05:28:50.841Z,0.00
2019-02-24T05:29:50.848Z,0.00
2019-02-24T05:30:50.856Z,0.00
2019-02-24T05:31:50.869Z,0.00
2019-02-24T05:32:50.881Z,4.00
2019-02-24T05:33:50.884Z,4.00
2019-02-24T05:34:50.899Z,4.00
2019-02-24T05:35:50.901Z,4.00
2019-02-24T05:36:50.915Z,4.00
2019-02-24T05:37:50.917Z,8.00
2019-02-24T05:38:50.926Z,4.00
2019-02-24T05:39:50.980Z,8.00
2019-02-24T05:40:50.941Z,8.00
2019-02-24T05:41:50.951Z,12.00
2019-02-24T05:42:50.960Z,12.00
2019-02-24T05:43:50.966Z,12.00
2019-02-24T05:44:50.979Z,16.00
2019-02-24T05:45:50.985Z,20.00
2019-02-24T05:46:50.995Z,24.00
2019-02-24T05:47:51.006Z,28.00
2019-02-24T05:48:51.016Z,36.00
2019-02-24T05:49:51.020Z,40.00
2019-02-24T05:50:51.026Z,48.00
2019-02-24T05:51:51.051Z,56.00
2019-02-24T05:52:51.044Z,68.00
2019-02-24T05:53:51.052Z,80.00
2019-02-24T05:54:51.923Z,104.00
2019-02-24T05:55:51.085Z,116.00
2019-02-24T05:56:51.080Z,136.00
2019-02-24T05:57:51.094Z,152.00
2019-02-24T05:58:51.102Z,176.00
2019-02-24T05:59:55.245Z,200.00
2019-02-24T06:00:51.113Z,220.00
2019-02-24T06:01:51.121Z,228.00
2019-02-24T06:02:51.132Z,244.00
2019-02-24T06:03:51.142Z,256.00
2019-02-24T06:04:51.151Z,280.00
2019-02-24T06:05:51.157Z,304.00
2019-02-24T06:06:51.166Z,324.00
2019-02-24T06:07:51.175Z,348.00
2019-02-24T06:08:51.181Z,380.00
2019-02-24T06:09:51.193Z,416.00
2019-02-24T06:10:51.199Z,452.00
2019-02-24T06:11:51.209Z,488.00
2019-02-24T06:12:51.261Z,520.00
2019-02-24T06:13:52.195Z,560.00
2019-02-24T06:14:51.231Z,604.00
2019-02-24T06:15:51.240Z,652.00
2019-02-24T06:16:51.254Z,700.00
2019-02-24T06:17:51.261Z,748.00
2019-02-24T06:18:51.269Z,788.00
2019-02-24T06:19:51.278Z,836.00
2019-02-24T06:20:51.286Z,880.00
2019-02-24T06:21:51.298Z,920.00
2019-02-24T06:22:51.303Z,956.00
2019-02-24T06:23:51.313Z,988.00
2019-02-24T06:24:51.339Z,1016.00
2019-02-24T06:25:51.332Z,1048.00
2019-02-24T06:26:51.339Z,1092.00
2019-02-24T06:27:51.350Z,1136.00
2019-02-24T06:28:51.357Z,1176.00
2019-02-24T06:29:51.367Z,1212.00
2019-02-24T06:30:51.386Z,1256.00
2019-02-24T06:31:51.386Z,1304.00
2019-02-24T06:32:51.392Z,1348.00
2019-02-24T06:33:51.402Z,1384.00
2019-02-24T06:34:51.412Z,1416.00
2019-02-24T06:35:51.419Z,1448.00
2019-02-24T06:36:51.432Z,1472.00
2019-02-24T06:37:51.440Z,1504.00
2019-02-24T06:38:51.448Z,1536.00
2019-02-24T06:39:51.458Z,1572.00
2019-02-24T06:40:51.468Z,1604.00
2019-02-24T06:41:51.476Z,1628.00
2019-02-24T06:42:51.488Z,1648.00
2019-02-24T06:43:51.496Z,1656.00
2019-02-24T06:44:51.509Z,1680.00
2019-02-24T06:45:51.514Z,1716.00
2019-02-24T06:46:51.525Z,1760.00
2019-02-24T06:47:51.538Z,1800.00
2019-02-24T06:48:51.541Z,1836.00
2019-02-24T06:49:51.549Z,1872.00
2019-02-24T06:50:51.574Z,1908.00
2019-02-24T06:51:51.570Z,1952.00
2019-02-24T06:52:51.583Z,2016.00
2019-02-24T06:53:51.590Z,2080.00
2019-02-24T06:54:51.602Z,2160.00
2019-02-24T06:55:51.611Z,2244.00
2019-02-24T06:56:51.621Z,2324.00
2019-02-24T06:57:51.627Z,2400.00
2019-02-24T06:58:51.648Z,2460.00
2019-02-24T06:59:51.677Z,2520.00
2019-02-24T07:00:51.731Z,2564.00
2019-02-24T07:01:51.741Z,2600.00
2019-02-24T07:02:51.726Z,2628.00
2019-02-24T07:03:51.738Z,2660.00
2019-02-24T07:04:51.795Z,2708.00
2019-02-24T07:05:51.789Z,2760.00
2019-02-24T07:06:51.797Z,2824.00
2019-02-24T07:07:51.803Z,2892.00
2019-02-24T07:08:51.794Z,2976.00
2019-02-24T07:09:51.798Z,3060.00
2019-02-24T07:10:51.790Z,3156.00
2019-02-24T07:11:51.784Z,3260.00
2019-02-24T07:12:51.783Z,3376.00
2019-02-24T07:13:51.788Z,3480.00
2019-02-24T07:14:51.795Z,3592.00
2019-02-24T07:15:51.805Z,3712.00
2019-02-24T07:16:51.819Z,3828.00
2019-02-24T07:17:51.826Z,3960.00
2019-02-24T07:18:51.838Z,4088.00
2019-02-24T07:19:51.846Z,4208.00
2019-02-24T07:20:51.855Z,4332.00
2019-02-24T07:21:51.866Z,4436.00
2019-02-24T07:22:51.877Z,4556.00
2019-02-24T07:23:51.937Z,4672.00
2019-02-24T07:24:51.902Z,4784.00
2019-02-24T07:25:51.909Z,4888.00
2019-02-24T07:26:51.920Z,5000.00
2019-02-24T07:27:51.929Z,5096.00
2019-02-24T07:28:51.939Z,5208.00
2019-02-24T07:29:51.951Z,5312.00
2019-02-24T07:30:51.963Z,5448.00
2019-02-24T07:31:51.972Z,5600.00
2019-02-24T07:32:51.982Z,5760.00
2019-02-24T07:33:51.994Z,5888.00
2019-02-24T07:34:52.004Z,5988.00
2019-02-24T07:35:52.020Z,6064.00
2019-02-24T07:36:52.029Z,6096.00
2019-02-24T07:37:52.037Z,6088.00
2019-02-24T07:38:52.047Z,6108.00
2019-02-24T07:39:52.057Z,6152.00
2019-02-24T07:40:52.068Z,6228.00
2019-02-24T07:41:52.078Z,6336.00
2019-02-24T07:42:52.088Z,6456.00
2019-02-24T07:43:52.102Z,6592.00
2019-02-24T07:44:52.114Z,6716.00
2019-02-24T07:45:52.122Z,6808.00
2019-02-24T07:46:52.136Z,6876.00
2019-02-24T07:47:52.148Z,6920.00
2019-02-24T07:48:52.157Z,6940.00
2019-02-24T07:49:52.169Z,6928.00
2019-02-24T07:50:52.180Z,6872.00
2019-02-24T07:51:52.190Z,6840.00
2019-02-24T07:52:52.202Z,6820.00
2019-02-24T07:53:52.213Z,6828.00
2019-02-24T07:54:52.226Z,6860.00
2019-02-24T07:55:52.238Z,6948.00
2019-02-24T07:56:52.248Z,7120.00
2019-02-24T07:57:52.259Z,7320.00
2019-02-24T07:58:52.273Z,7548.00
2019-02-24T07:59:52.283Z,7808.00
2019-02-24T08:00:52.294Z,8052.00
2019-02-24T08:01:52.305Z,8296.00
2019-02-24T08:02:52.318Z,8516.00
2019-02-24T08:03:52.330Z,8716.00
2019-02-24T08:04:52.342Z,8924.00
2019-02-24T08:05:52.353Z,9092.00
2019-02-24T08:06:52.366Z,9204.00
2019-02-24T08:07:52.377Z,9284.00
2019-02-24T08:08:52.388Z,9316.00
2019-02-24T08:09:52.396Z,9344.00
2019-02-24T08:10:52.412Z,9320.00
2019-02-24T08:11:52.424Z,9268.00
2019-02-24T08:12:52.437Z,9184.00
2019-02-24T08:13:52.449Z,9100.00
2019-02-24T08:14:52.464Z,9040.00
2019-02-24T08:15:52.474Z,8956.00
2019-02-24T08:16:52.492Z,8856.00
2019-02-24T08:17:52.498Z,8764.00
2019-02-24T08:18:52.511Z,8732.00
2019-02-24T08:19:52.523Z,8768.00
2019-02-24T08:20:52.586Z,8840.00
2019-02-24T08:21:52.547Z,8988.00
2019-02-24T08:22:52.562Z,9192.00
2019-02-24T08:23:52.569Z,9412.00
2019-02-24T08:24:52.587Z,9608.00
2019-02-24T08:25:52.597Z,9816.00
2019-02-24T08:26:52.612Z,9972.00
2019-02-24T08:27:54.058Z,10104.00
2019-02-24T08:28:52.635Z,10236.00
2019-02-24T08:29:52.647Z,10308.00
2019-02-24T08:30:52.660Z,10376.00
2019-02-24T08:31:52.673Z,10264.00
2019-02-24T08:32:52.686Z,10048.00
2019-02-24T08:33:52.698Z,9860.00
2019-02-24T08:34:53.061Z,9720.00
2019-02-24T08:35:52.726Z,9676.00
2019-02-24T08:36:52.738Z,9672.00
2019-02-24T08:37:52.752Z,9712.00
2019-02-24T08:38:52.762Z,9732.00
2019-02-24T08:39:52.775Z,9752.00
2019-02-24T08:40:52.787Z,9908.00
2019-02-24T08:41:52.799Z,9876.00
2019-02-24T08:42:52.813Z,9772.00
2019-02-24T08:43:52.826Z,9668.00
2019-02-24T08:44:52.847Z,9360.00
2019-02-24T08:45:52.851Z,9036.00
2019-02-24T08:46:52.865Z,8692.00
2019-02-24T08:47:52.879Z,8320.00
2019-02-24T08:48:52.890Z,8088.00
2019-02-24T08:49:52.904Z,7408.00
2019-02-24T08:50:52.916Z,6892.00
2019-02-24T08:51:52.931Z,6344.00
2019-02-24T08:52:52.945Z,5948.00
2019-02-24T08:53:52.959Z,5176.00
2019-02-24T08:54:52.968Z,4892.00
2019-02-24T08:55:52.982Z,4348.00
2019-02-24T08:56:52.994Z,4112.00
2019-02-24T08:57:53.006Z,4204.00
2019-02-24T08:58:53.020Z,3852.00
2019-02-24T08:59:53.032Z,4160.00
2019-02-24T09:00:53.045Z,4200.00
2019-02-24T09:01:53.056Z,4240.00
2019-02-24T09:02:53.072Z,4300.00
2019-02-24T09:03:53.086Z,4332.00
2019-02-24T09:04:53.103Z,4388.00
2019-02-24T09:05:53.109Z,4444.00
2019-02-24T09:06:53.120Z,4520.00
2019-02-24T09:07:53.133Z,4616.00
2019-02-24T09:08:53.263Z,4700.00
2019-02-24T09:09:53.155Z,4776.00
2019-02-24T09:10:53.168Z,4812.00
2019-02-24T09:11:53.182Z,4756.00
2019-02-24T09:12:53.194Z,4688.00
2019-02-24T09:13:53.209Z,4620.00
2019-02-24T09:14:53.217Z,4564.00
2019-02-24T09:15:53.449Z,4472.00
2019-02-24T09:16:53.242Z,4384.00
2019-02-24T09:17:53.250Z,4288.00
2019-02-24T09:18:53.263Z,4224.00
2019-02-24T09:19:53.276Z,4176.00
2019-02-24T09:20:53.300Z,4172.00
2019-02-24T09:21:53.308Z,4120.00
2019-02-24T09:22:53.316Z,4080.00
2019-02-24T09:23:53.325Z,4244.00
2019-02-24T09:24:53.338Z,4248.00
2019-02-24T09:25:53.349Z,4240.00
2019-02-24T09:26:53.369Z,4236.00
2019-02-24T09:27:53.383Z,4228.00
2019-02-24T09:28:53.389Z,4228.00
2019-02-24T09:29:53.396Z,4228.00
2019-02-24T09:31:00.538Z,4228.00
2019-02-24T09:31:53.421Z,4248.00
2019-02-24T09:32:53.436Z,4264.00
2019-02-24T09:33:53.460Z,4280.00
2019-02-24T09:34:53.537Z,4292.00
2019-02-24T09:35:53.538Z,4296.00
2019-02-24T09:36:53.548Z,4300.00
2019-02-24T09:37:53.548Z,4296.00
2019-02-24T09:38:53.550Z,4296.00
2019-02-24T09:39:53.606Z,4292.00
2019-02-24T09:40:53.599Z,4296.00
2019-02-24T09:41:53.597Z,4304.00
2019-02-24T09:42:53.594Z,4312.00
2019-02-24T09:43:53.592Z,4316.00
2019-02-24T09:44:53.602Z,4308.00
2019-02-24T09:45:53.596Z,4308.00
2019-02-24T09:46:53.603Z,4312.00
2019-02-24T09:47:53.664Z,4320.00
2019-02-24T09:48:53.630Z,4324.00
2019-02-24T09:49:53.641Z,4316.00
2019-02-24T09:50:53.652Z,4304.00
2019-02-24T09:51:53.667Z,4304.00
2019-02-24T09:52:53.679Z,4308.00
2019-02-24T09:53:53.689Z,4304.00
2019-02-24T09:54:53.700Z,4300.00
2019-02-24T09:55:53.717Z,4308.00
2019-02-24T09:56:53.729Z,4320.00
2019-02-24T09:57:53.739Z,4324.00
2019-02-24T09:58:53.753Z,4320.00
2019-02-24T09:59:53.765Z,4320.00
2019-02-24T10:00:53.776Z,4320.00
2019-02-24T10:01:53.789Z,4320.00
2019-02-24T10:02:53.803Z,4324.00
2019-02-24T10:03:53.816Z,4336.00
2019-02-24T10:04:53.828Z,4332.00
2019-02-24T10:05:53.840Z,4324.00
2019-02-24T10:06:53.854Z,4320.00
2019-02-24T10:07:53.868Z,4328.00
2019-02-24T10:08:53.879Z,4332.00
2019-02-24T10:09:53.890Z,4340.00
2019-02-24T10:10:53.902Z,4340.00
2019-02-24T10:11:53.916Z,4336.00
2019-02-24T10:12:53.930Z,4340.00
2019-02-24T10:13:53.940Z,4336.00
2019-02-24T10:14:53.955Z,4332.00
2019-02-24T10:15:53.967Z,4340.00
2019-02-24T10:16:53.985Z,4352.00
2019-02-24T10:17:53.995Z,4368.00
2019-02-24T10:18:54.007Z,4380.00
2019-02-24T10:19:54.023Z,4388.00
2019-02-24T10:20:54.032Z,4392.00
2019-02-24T10:21:54.044Z,4396.00
2019-02-24T10:22:54.060Z,4400.00
2019-02-24T10:23:54.072Z,4392.00
2019-02-24T10:24:54.085Z,4396.00
2019-02-24T10:25:54.098Z,4396.00
2019-02-24T10:26:54.110Z,4396.00
2019-02-24T10:27:54.124Z,4380.00
2019-02-24T10:28:54.142Z,4372.00
2019-02-24T10:29:54.153Z,4360.00
2019-02-24T10:30:54.167Z,4356.00
2019-02-24T10:31:54.183Z,4352.00
2019-02-24T10:32:54.193Z,4356.00
2019-02-24T10:33:54.204Z,4364.00
2019-02-24T10:34:54.219Z,4384.00
2019-02-24T10:35:54.232Z,4400.00
2019-02-24T10:36:54.249Z,4412.00
2019-02-24T10:37:54.263Z,4412.00
2019-02-24T10:38:54.274Z,4404.00
2019-02-24T10:39:54.292Z,4396.00
2019-02-24T10:40:54.303Z,4384.00
2019-02-24T10:41:54.318Z,4384.00
2019-02-24T10:42:54.331Z,4388.00
2019-02-24T10:43:54.345Z,4380.00
2019-02-24T10:44:54.357Z,4376.00
2019-02-24T10:45:54.371Z,4368.00
2019-02-24T10:46:54.385Z,4364.00
2019-02-24T10:47:54.401Z,4352.00
2019-02-24T10:49:02.920Z,4344.00
2019-02-24T10:49:54.429Z,4340.00
2019-02-24T10:50:54.443Z,4324.00
2019-02-24T10:51:54.459Z,4320.00
2019-02-24T10:52:54.471Z,4336.00
2019-02-24T10:53:54.483Z,4332.00
2019-02-24T10:54:54.497Z,4340.00
2019-02-24T10:55:54.512Z,4344.00
2019-02-24T10:56:54.533Z,4344.00
2019-02-24T10:57:54.543Z,4348.00
2019-02-24T10:58:54.558Z,4348.00
2019-02-24T10:59:54.572Z,4344.00
2019-02-24T11:00:54.586Z,4328.00
2019-02-24T11:01:54.600Z,4324.00
2019-02-24T11:02:54.615Z,4324.00
2019-02-24T11:03:54.629Z,4336.00
2019-02-24T11:04:54.646Z,4348.00
2019-02-24T11:05:54.662Z,4360.00
2019-02-24T11:06:54.675Z,4364.00
2019-02-24T11:07:54.688Z,4364.00
2019-02-24T11:08:54.702Z,4364.00
2019-02-24T11:09:54.716Z,4352.00
2019-02-24T11:10:54.730Z,4344.00
2019-02-24T11:11:54.752Z,4332.00
2019-02-24T11:12:54.763Z,4316.00
2019-02-24T11:13:54.777Z,4312.00
2019-02-24T11:14:54.790Z,4312.00
2019-02-24T11:15:54.803Z,4328.00
2019-02-24T11:16:54.823Z,4344.00
2019-02-24T11:17:54.836Z,4352.00
2019-02-24T11:18:54.851Z,4364.00
2019-02-24T11:19:54.867Z,4368.00
2019-02-24T11:20:54.881Z,4364.00
2019-02-24T11:21:54.895Z,4348.00
2019-02-24T11:22:54.910Z,4332.00
2019-02-24T11:23:54.928Z,4324.00
2019-02-24T11:24:54.945Z,4332.00
2019-02-24T11:25:54.958Z,4340.00
2019-02-24T11:26:54.974Z,4360.00
2019-02-24T11:27:54.989Z,4364.00
2019-02-24T11:28:55.003Z,4364.00
2019-02-24T11:29:55.019Z,4364.00
2019-02-24T11:30:55.035Z,4368.00
2019-02-24T11:31:55.051Z,4372.00
2019-02-24T11:32:55.067Z,4384.00
2019-02-24T11:33:55.081Z,4384.00
2019-02-24T11:34:55.096Z,4376.00
2019-02-24T11:35:55.112Z,4364.00
2019-02-24T11:36:55.128Z,4356.00
2019-02-24T11:37:55.143Z,4368.00
2019-02-24T11:38:55.163Z,4368.00
2019-02-24T11:39:55.177Z,4368.00
2019-02-24T11:40:55.191Z,4360.00
2019-02-24T11:41:55.208Z,4360.00
2019-02-24T11:42:55.223Z,4360.00
2019-02-24T11:43:55.237Z,4360.00
2019-02-24T11:44:55.251Z,4364.00
2019-02-24T11:45:55.267Z,4360.00
2019-02-24T11:46:55.291Z,4372.00
2019-02-24T11:47:55.345Z,4376.00
2019-02-24T11:48:55.388Z,4376.00
2019-02-24T11:49:55.388Z,4372.00
2019-02-24T11:50:55.376Z,4376.00
2019-02-24T11:52:03.493Z,4372.00
2019-02-24T11:52:55.431Z,4364.00
2019-02-24T11:53:55.443Z,4348.00
2019-02-24T11:54:55.435Z,4340.00
2019-02-24T11:55:55.467Z,4336.00
2019-02-24T11:56:55.446Z,4332.00
2019-02-24T11:57:55.462Z,4320.00
2019-02-24T11:58:55.478Z,4304.00
2019-02-24T11:59:55.495Z,4288.00
2019-02-24T12:00:55.511Z,4288.00
2019-02-24T12:01:55.527Z,4280.00
2019-02-24T12:02:55.544Z,4272.00
2019-02-24T12:03:55.559Z,4268.00
2019-02-24T12:04:55.573Z,4272.00
2019-02-24T12:05:55.589Z,4264.00
2019-02-24T12:06:55.606Z,4240.00
2019-02-24T12:07:55.623Z,4224.00
2019-02-24T12:08:55.641Z,4212.00
2019-02-24T12:09:55.659Z,4208.00
2019-02-24T12:10:55.675Z,4216.00
2019-02-24T12:11:55.690Z,4224.00
2019-02-24T12:12:55.705Z,4228.00
2019-02-24T12:13:55.722Z,4220.00
2019-02-24T12:14:55.736Z,4208.00
2019-02-24T12:15:55.754Z,4208.00
2019-02-24T12:16:55.770Z,4220.00
2019-02-24T12:17:55.787Z,4224.00
2019-02-24T12:18:55.806Z,4224.00
2019-02-24T12:19:55.826Z,4220.00
2019-02-24T12:20:55.840Z,4212.00
2019-02-24T12:21:55.857Z,4204.00
2019-02-24T12:22:55.875Z,4208.00
2019-02-24T12:23:55.891Z,4220.00
2019-02-24T12:24:55.904Z,4228.00
2019-02-24T12:25:55.923Z,4228.00
2019-02-24T12:26:55.940Z,4232.00
2019-02-24T12:27:55.956Z,4232.00
2019-02-24T12:28:55.977Z,4224.00
2019-02-24T12:29:55.991Z,4220.00
2019-02-24T12:30:56.009Z,4208.00
2019-02-24T12:31:56.804Z,4200.00
2019-02-24T12:32:56.043Z,4192.00
2019-02-24T12:33:56.879Z,4180.00
2019-02-24T12:34:56.078Z,4172.00
2019-02-24T12:35:56.093Z,4160.00
2019-02-24T12:36:56.111Z,4156.00
2019-02-24T12:37:56.128Z,4160.00
2019-02-24T12:38:56.141Z,4148.00